createdAt,value
2022-12-27T04:12:10.108Z,2.03
2022-12-27T04:17:39.764Z,1.30
2022-12-27T04:20:25.161Z,1.15
2022-12-27T04:23:10.175Z,1.30
2022-12-27T04:25:54.922Z,3.47
2022-12-27T04:28:39.739Z,1.80
2022-12-27T04:31:25.021Z,1.65
2022-12-27T04:34:10.168Z,2.53
2022-12-27T04:36:36.751Z,3.83
2022-12-27T04:39:03.771Z,2.75
2022-12-27T04:41:48.571Z,1.52
2022-12-27T04:44:33.317Z,1.30
2022-12-27T04:47:18.555Z,1.33
2022-12-27T04:50:03.948Z,1.73
2022-12-27T04:52:48.732Z,2.80
2022-12-27T04:55:28.100Z,1.13
2022-12-27T04:57:55.705Z,1.48
2022-12-27T05:00:43.569Z,2.17
2022-12-27T05:03:13.046Z,1.23
2022-12-27T05:05:41.270Z,1.15
2022-12-27T05:08:27.035Z,1.73
2022-12-27T05:11:12.320Z,1.00
2022-12-27T05:13:57.725Z,1.80
2022-12-27T05:16:24.207Z,2.58
2022-12-27T05:18:51.824Z,1.48
2022-12-27T05:21:18.398Z,1.90
2022-12-27T05:24:05.666Z,1.42
2022-12-27T05:26:33.541Z,1.33
2022-12-27T05:29:01.098Z,1.80
2022-12-27T05:31:29.449Z,1.58
2022-12-27T05:33:57.079Z,1.27
2022-12-27T05:36:23.924Z,1.30
2022-12-27T05:38:51.361Z,1.50
2022-12-27T05:41:17.988Z,4.22
2022-12-27T05:43:44.588Z,1.15
2022-12-27T05:46:13.514Z,1.48
2022-12-27T05:48:40.069Z,1.25
2022-12-27T05:51:09.163Z,1.38
2022-12-27T05:53:36.057Z,2.67
2022-12-27T05:56:03.015Z,1.52
2022-12-27T05:58:29.512Z,2.13
2022-12-27T06:00:56.090Z,3.35
2022-12-27T06:03:23.175Z,2.22
2022-12-27T06:05:49.814Z,1.70
2022-12-27T06:08:16.632Z,1.80
2022-12-27T06:10:43.222Z,1.60
2022-12-27T06:13:09.945Z,1.55
2022-12-27T06:15:37.011Z,1.80
2022-12-27T06:18:03.712Z,1.50
2022-12-27T06:20:30.555Z,2.67
2022-12-27T06:22:59.489Z,2.08
2022-12-27T06:25:26.328Z,2.33
2022-12-27T06:27:52.816Z,1.73
2022-12-27T06:30:19.516Z,2.10
2022-12-27T06:32:46.106Z,1.90
2022-12-27T06:35:12.618Z,3.22
2022-12-27T06:37:39.374Z,1.92
2022-12-27T06:40:06.687Z,3.38
2022-12-27T06:42:33.193Z,1.98
2022-12-27T06:44:59.773Z,2.00
2022-12-27T06:47:26.284Z,4.63
2022-12-27T06:49:52.869Z,2.13
2022-12-27T06:52:19.653Z,2.42
2022-12-27T06:54:46.333Z,2.03
2022-12-27T06:57:12.929Z,4.00
2022-12-27T06:59:39.490Z,2.40
2022-12-27T07:02:06.208Z,2.35
2022-12-27T07:04:32.989Z,2.17
2022-12-27T07:06:59.526Z,2.10
2022-12-27T07:09:26.194Z,2.15
2022-12-27T07:11:54.044Z,4.78
2022-12-27T07:14:20.617Z,3.17
2022-12-27T07:16:49.170Z,1.70
2022-12-27T07:19:15.673Z,2.83
2022-12-27T07:21:42.961Z,2.78
2022-12-27T07:24:09.588Z,4.10
2022-12-27T07:26:36.164Z,3.80
2022-12-27T07:29:02.655Z,3.72
2022-12-27T07:31:32.083Z,1.80
2022-12-27T07:34:01.513Z,1.80
2022-12-27T07:36:37.233Z,2.17
2022-12-27T07:39:05.357Z,3.35
2022-12-27T07:41:32.217Z,3.88
2022-12-27T07:43:58.681Z,2.75
2022-12-27T07:46:26.191Z,3.33
2022-12-27T07:48:55.441Z,2.65
2022-12-27T07:51:23.872Z,1.95
2022-12-27T07:53:51.249Z,2.78
2022-12-27T07:56:26.218Z,2.75
2022-12-27T07:58:55.360Z,4.22
2022-12-27T08:01:23.190Z,2.95
2022-12-27T09:07:47.752Z,1.90
2022-12-27T09:32:19.409Z,3.00
2022-12-27T09:52:57.728Z,2.70
2022-12-27T10:03:13.466Z,7.00
2022-12-27T11:10:16.582Z,1.80
2022-12-27T11:45:51.415Z,2.15
2022-12-27T11:48:21.020Z,1.98
2022-12-27T12:02:21.912Z,2.53
2022-12-27T12:05:11.685Z,0.80
2022-12-27T12:14:01.589Z,1.77
2022-12-27T12:16:40.905Z,0.68
2022-12-27T12:19:13.520Z,1.23
2022-12-27T12:24:21.206Z,1.48
2022-12-27T12:26:55.575Z,3.28
2022-12-27T12:29:44.373Z,8.32
2022-12-27T12:32:45.128Z,3.92
2022-12-27T12:35:17.717Z,2.13
2022-12-27T12:41:13.962Z,0.90
2022-12-27T12:57:03.119Z,1.20
2022-12-27T13:00:02.945Z,0.85
2022-12-27T13:02:38.668Z,1.63
2022-12-27T13:10:39.606Z,3.00
2022-12-27T13:13:43.851Z,1.73
2022-12-27T13:16:10.450Z,1.70
2022-12-27T13:19:11.198Z,2.95
2022-12-27T13:24:31.925Z,2.03
2022-12-27T13:27:31.631Z,1.10
2022-12-27T13:30:06.253Z,2.97
2022-12-27T16:06:35.726Z,20.88
2022-12-27T16:09:35.975Z,8.32
2022-12-27T16:14:37.607Z,5.65
2022-12-27T16:17:20.322Z,6.55
2022-12-27T16:20:18.831Z,5.22
2022-12-27T16:22:57.101Z,3.90
2022-12-27T16:25:31.262Z,3.50
2022-12-27T16:28:26.476Z,6.03
2022-12-27T16:30:55.590Z,7.85
2022-12-27T16:33:33.693Z,5.63
2022-12-27T16:36:06.840Z,10.68
2022-12-27T16:38:34.870Z,7.20
2022-12-27T16:41:16.952Z,3.72
2022-12-27T16:44:23.727Z,9.77
2022-12-27T16:46:57.098Z,7.60
2022-12-27T16:49:41.659Z,5.18
2022-12-27T16:52:28.420Z,9.73
2022-12-27T16:55:02.565Z,12.00
2022-12-27T16:58:20.979Z,9.70
2022-12-27T17:00:49.895Z,8.43
2022-12-27T17:03:21.094Z,8.45
2022-12-27T17:06:30.143Z,5.88
2022-12-27T17:08:39.245Z,7.00
2022-12-27T17:11:25.651Z,12.55
2022-12-27T17:14:04.062Z,7.88
2022-12-27T17:16:40.820Z,8.60
2022-12-27T17:19:21.125Z,7.03
2022-12-27T17:21:55.215Z,8.23
2022-12-27T17:24:23.032Z,5.45
2022-12-27T17:27:03.089Z,9.02
2022-12-27T17:32:26.658Z,7.07
2022-12-27T17:35:15.811Z,11.98
2022-12-27T17:38:00.907Z,13.85
2022-12-27T17:41:09.127Z,5.93
2022-12-27T17:44:28.004Z,11.68
2022-12-27T17:47:02.459Z,7.43
2022-12-27T17:49:32.311Z,6.03
2022-12-27T17:52:19.492Z,3.53
2022-12-27T17:55:04.745Z,7.68
2022-12-27T17:57:50.631Z,17.85
2022-12-27T18:00:31.113Z,35.92
2022-12-27T18:03:01.269Z,35.03
2022-12-27T18:05:39.350Z,20.00
2022-12-27T18:08:09.039Z,16.02
2022-12-27T18:10:36.629Z,23.95
2022-12-27T18:13:06.327Z,24.30
2022-12-27T18:15:36.500Z,18.55
2022-12-27T18:20:36.435Z,24.30
2022-12-27T18:23:02.917Z,22.38
2022-12-27T18:25:37.681Z,32.78
2022-12-27T18:28:18.213Z,29.35
2022-12-27T18:31:09.053Z,30.58
2022-12-27T18:33:44.924Z,20.55
2022-12-27T18:36:20.161Z,23.52
2022-12-27T18:38:53.075Z,25.83
2022-12-27T18:41:21.603Z,16.55
2022-12-27T18:43:58.890Z,25.33
2022-12-27T18:46:33.740Z,23.63
2022-12-27T18:49:01.205Z,26.70
2022-12-27T18:51:33.072Z,20.40
2022-12-27T18:54:00.603Z,26.60
2022-12-27T18:56:32.482Z,23.15
2022-12-27T18:59:02.724Z,25.48
2022-12-27T19:04:20.429Z,37.83
2022-12-27T19:07:05.854Z,52.75
2022-12-27T19:09:40.475Z,53.40
2022-12-27T19:12:31.064Z,49.08
2022-12-27T19:14:57.766Z,42.20
2022-12-27T19:17:29.677Z,16.20
2022-12-27T19:20:08.252Z,12.10
2022-12-27T19:22:42.342Z,9.77
2022-12-27T19:25:18.410Z,8.27
2022-12-27T19:28:09.699Z,7.47
2022-12-27T19:30:42.265Z,11.18
2022-12-27T19:33:15.249Z,13.50
2022-12-27T19:35:43.174Z,14.52
2022-12-27T19:38:19.104Z,10.88
2022-12-27T19:40:50.658Z,12.65
2022-12-27T19:43:18.310Z,13.95
2022-12-27T19:45:45.001Z,13.48
2022-12-27T19:48:11.852Z,13.98
2022-12-27T19:50:45.053Z,15.82
2022-12-27T19:53:16.303Z,12.80
2022-12-27T19:55:43.016Z,13.63
2022-12-27T19:58:26.758Z,17.95
2022-12-27T20:00:53.914Z,20.30
2022-12-27T20:03:20.473Z,19.15
2022-12-27T20:06:13.290Z,18.88
2022-12-27T20:08:39.005Z,16.42
2022-12-27T20:11:08.073Z,23.38
2022-12-27T20:13:34.579Z,21.88
2022-12-27T20:16:01.275Z,21.50
2022-12-27T20:18:27.823Z,22.20
2022-12-27T20:20:54.349Z,19.42
2022-12-27T20:23:21.234Z,21.88
2022-12-27T20:25:51.278Z,17.73
2022-12-27T20:30:58.732Z,19.33
2022-12-27T20:33:25.295Z,16.17
2022-12-27T20:35:57.347Z,14.05
2022-12-27T20:38:25.115Z,15.80
2022-12-27T20:40:52.477Z,17.42
2022-12-27T20:43:19.589Z,17.30
2022-12-27T20:45:47.000Z,16.75
2022-12-27T20:48:16.451Z,14.75
2022-12-27T20:50:42.962Z,18.33
2022-12-27T20:53:09.611Z,19.55
2022-12-27T20:55:36.524Z,16.00
2022-12-27T20:58:03.253Z,25.27
2022-12-27T21:00:29.833Z,39.85
2022-12-27T21:02:57.090Z,69.72
2022-12-27T21:05:23.866Z,32.78
2022-12-27T21:07:50.482Z,25.60
2022-12-27T21:10:17.201Z,21.92
2022-12-27T21:12:43.750Z,26.20
2022-12-27T21:15:10.979Z,28.95
2022-12-27T21:17:37.669Z,47.33
2022-12-27T21:20:11.219Z,49.80
2022-12-27T21:22:38.210Z,54.35
2022-12-27T21:25:07.993Z,87.25
2022-12-27T21:27:34.589Z,47.55
2022-12-27T21:30:12.901Z,30.98
2022-12-27T21:32:39.442Z,27.58
2022-12-27T21:35:06.525Z,16.48
2022-12-27T21:37:33.318Z,16.00
2022-12-27T21:39:59.953Z,17.02
2022-12-27T21:42:26.545Z,13.35
2022-12-27T21:44:53.131Z,16.98
2022-12-27T21:47:19.687Z,12.75
2022-12-27T21:49:46.328Z,11.50
2022-12-27T21:52:12.881Z,19.88
2022-12-27T21:54:39.520Z,13.48
2022-12-27T21:57:06.318Z,12.18
2022-12-27T21:59:33.016Z,13.23
2022-12-27T22:01:59.752Z,13.02
2022-12-27T22:04:27.488Z,12.48
2022-12-27T22:06:55.191Z,12.05
2022-12-27T22:09:21.815Z,12.75
2022-12-27T22:11:49.018Z,11.63
2022-12-27T22:14:37.061Z,9.07
2022-12-27T22:17:11.582Z,12.27
2022-12-27T22:19:38.140Z,12.40
2022-12-27T22:22:07.845Z,10.95
2022-12-27T22:24:34.384Z,13.02
2022-12-27T22:27:16.099Z,10.23
2022-12-27T22:29:42.617Z,14.98
2022-12-27T22:32:09.258Z,14.43
2022-12-27T22:34:39.289Z,13.85
2022-12-27T22:39:32.770Z,17.98
2022-12-27T22:41:59.362Z,23.70
2022-12-27T22:44:26.230Z,21.45
2022-12-27T22:49:49.867Z,16.17
2022-12-27T22:52:16.468Z,19.48
2022-12-27T22:55:04.478Z,11.60
2022-12-27T22:57:30.179Z,12.40
2022-12-27T22:59:56.708Z,10.70
2022-12-27T23:02:23.366Z,13.07
2022-12-27T23:04:55.636Z,12.30
2022-12-27T23:08:06.090Z,15.70
2022-12-27T23:10:10.048Z,17.02
2022-12-27T23:12:36.712Z,16.38
2022-12-27T23:15:04.092Z,20.85
2022-12-27T23:17:30.632Z,18.35
2022-12-27T23:19:57.217Z,17.48
2022-12-27T23:22:23.740Z,17.05
2022-12-27T23:24:50.391Z,21.80
2022-12-27T23:27:17.172Z,22.85
2022-12-27T23:29:43.677Z,21.95
2022-12-27T23:32:10.281Z,18.10
2022-12-27T23:34:36.874Z,16.17
2022-12-27T23:37:03.646Z,16.63
2022-12-27T23:39:30.215Z,18.15
2022-12-27T23:42:02.723Z,17.67
2022-12-27T23:44:33.279Z,14.70
2022-12-27T23:47:05.506Z,15.73
2022-12-27T23:49:32.539Z,14.90
2022-12-27T23:51:59.069Z,13.57
2022-12-27T23:54:25.635Z,12.23
2022-12-27T23:56:52.275Z,19.70
2022-12-27T23:59:18.859Z,13.15
